Seabrook, NH (03874)

4:55 PM EDT on August 30, 2015 (GMT -0400)
W1MSN Seabrook North | | Change Station
CLOSE
Current Station
Personal Weather Station
Location: Seabrook, NH
Elevation: 72 ft
Nearby Weather Stations

Elev 72 ft 42.90 °N, 70.87 °W | Updated 5 seconds ago

Mostly Cloudy
Mostly Cloudy
84.9 °F
Feels Like 85 °F
N
3.8
Wind Variable Wind from SW
Gusts 6.9 mph

Today
High -- | Low -- °F
--% Chance of Precip.
Yesterday
High -- | Low -- °F
Precip. -- in
6:05 AM 7:21 PM
Full, 98% visible
Pressure 30.00 in
Visibility 10.0 miles
Clouds Few 6000 ft
Few 17000 ft
Mostly Cloudy 25000 ft
Heat Index 85 °F
Dew Point 59 °F
Humidity 42%
Rainfall 0.00 in
Snow Depth Not available.
UV 2 out of 12
Pollen 10.70 out of 12
Air Quality Not available.
Flu Activity Not available.
METAR KPSM 301958Z 29005KT 10SM FEW060 FEW170 BKN250 30/12 A2999 RMK AO2A SLP157 T02960120
Pressure 30.00 in
Visibility 10.0 miles
Clouds Few 6000 ft
Few 17000 ft
Mostly Cloudy 25000 ft
Heat Index 85 °F
Dew Point 59 °F
Humidity 42%
Rainfall 0.00 in
Snow Depth Not available.
UV 2 out of 12
Pollen 10.70 out of 12
Air Quality Not available.
Flu Activity Not available.
METAR KPSM 301958Z 29005KT 10SM FEW060 FEW170 BKN250 30/12 A2999 RMK AO2A SLP157 T02960120

10-Day Weather Forecast

×

Almanac

Astronomy

Aug. 30, 2015 Rise Set
Actual Time
Civil Twilight
Nautical Twilight
Astronomical Twilight
Moon
Length of Visible Light
Length of Day
Tomorrow will be .
, % of the Moon is Illuminated

Today's Extremes

State Highs State Lows

Community

WunderPhotos

Upload Photos

1,851,057 photos uploaded!

WunderBlogs® & News

Nearby

Air Quality

  Air Quality AQ Index Pollutant
Not available.

Snow Depth

Station Depth Elevation

Earthquake Activity

City Distance Mag. Time & Date
Minimum magnitude displayed is 2.5.

Coastal Water Temperatures

Place Temperature

Stations

Nearby Weather Stations

Station Location Temp. Windchill Dew Point Humidity Wind Precip. Elev Updated Type